sensor_id;sensor_type;location;lat;lon;timestamp;pressure;altitude;pressure_sealevel;temperature;humidity
50632;BME280;49583;45.590;-122.498;2023-07-31T00:01:16;101423.19;;;29.99;28.90
50632;BME280;49583;45.590;-122.498;2023-07-31T00:03:29;101424.59;;;30.00;29.11
50632;BME280;49583;45.590;-122.498;2023-07-31T00:05:42;101426.98;;;30.03;28.88
50632;BME280;49583;45.590;-122.498;2023-07-31T00:07:55;101424.30;;;30.03;29.03
50632;BME280;49583;45.590;-122.498;2023-07-31T00:10:08;101421.27;;;30.02;28.80
50632;BME280;49583;45.590;-122.498;2023-07-31T00:12:21;101418.52;;;30.01;28.71
50632;BME280;49583;45.590;-122.498;2023-07-31T00:14:34;101426.45;;;29.97;28.71
50632;BME280;49583;45.590;-122.498;2023-07-31T00:16:46;101420.91;;;29.96;28.68
50632;BME280;49583;45.590;-122.498;2023-07-31T00:19:00;101420.10;;;29.95;28.51
50632;BME280;49583;45.590;-122.498;2023-07-31T00:21:13;101421.83;;;29.94;28.62
50632;BME280;49583;45.590;-122.498;2023-07-31T00:23:25;101416.19;;;29.94;28.63
50632;BME280;49583;45.590;-122.498;2023-07-31T00:25:38;101418.89;;;29.96;28.60
50632;BME280;49583;45.590;-122.498;2023-07-31T00:27:51;101415.59;;;29.98;28.60
50632;BME280;49583;45.590;-122.498;2023-07-31T00:30:04;101416.80;;;29.96;28.37
50632;BME280;49583;45.590;-122.498;2023-07-31T00:32:16;101414.35;;;29.95;28.54
50632;BME280;49583;45.590;-122.498;2023-07-31T00:34:29;101409.69;;;29.95;28.38
50632;BME280;49583;45.590;-122.498;2023-07-31T00:36:42;101409.64;;;29.92;28.28
50632;BME280;49583;45.590;-122.498;2023-07-31T00:38:58;101412.48;;;29.92;28.18
50632;BME280;49583;45.590;-122.498;2023-07-31T00:41:10;101407.66;;;29.90;28.03
50632;BME280;49583;45.590;-122.498;2023-07-31T00:43:24;101408.54;;;29.87;28.12
50632;BME280;49583;45.590;-122.498;2023-07-31T00:45:36;101404.39;;;29.82;27.91
50632;BME280;49583;45.590;-122.498;2023-07-31T00:47:49;101408.30;;;29.78;28.09
50632;BME280;49583;45.590;-122.498;2023-07-31T00:50:03;101402.65;;;29.74;28.13
50632;BME280;49583;45.590;-122.498;2023-07-31T00:52:15;101402.84;;;29.73;28.24
50632;BME280;49583;45.590;-122.498;2023-07-31T00:54:28;101397.88;;;29.74;28.33
50632;BME280;49583;45.590;-122.498;2023-07-31T00:56:43;101392.08;;;29.74;28.29
50632;BME280;49583;45.590;-122.498;2023-07-31T00:58:58;101390.42;;;29.73;28.36
50632;BME280;49583;45.590;-122.498;2023-07-31T01:01:13;101391.73;;;29.71;28.36
50632;BME280;49583;45.590;-122.498;2023-07-31T01:03:26;101389.53;;;29.70;28.34
50632;BME280;49583;45.590;-122.498;2023-07-31T01:05:46;101390.54;;;29.66;28.40
50632;BME280;49583;45.590;-122.498;2023-07-31T01:08:08;101388.39;;;29.64;28.40
50632;BME280;49583;45.590;-122.498;2023-07-31T01:10:26;101382.55;;;29.61;28.36
50632;BME280;49583;45.590;-122.498;2023-07-31T01:12:40;101381.52;;;29.59;28.38
50632;BME280;49583;45.590;-122.498;2023-07-31T01:15:05;101381.02;;;29.56;28.27
50632;BME280;49583;45.590;-122.498;2023-07-31T01:17:21;101380.10;;;29.53;28.54
50632;BME280;49583;45.590;-122.498;2023-07-31T01:19:33;101377.27;;;29.50;28.67
50632;BME280;49583;45.590;-122.498;2023-07-31T01:22:03;101380.52;;;29.47;28.76
50632;BME280;49583;45.590;-122.498;2023-07-31T01:24:28;101379.42;;;29.44;28.71
50632;BME280;49583;45.590;-122.498;2023-07-31T01:26:47;101376.70;;;29.42;28.69
50632;BME280;49583;45.590;-122.498;2023-07-31T01:29:06;101376.50;;;29.38;28.72
50632;BME280;49583;45.590;-122.498;2023-07-31T01:31:22;101376.35;;;29.40;28.81
50632;BME280;49583;45.590;-122.498;2023-07-31T01:33:36;101375.23;;;29.37;28.59
50632;BME280;49583;45.590;-122.498;2023-07-31T01:35:50;101377.33;;;29.34;28.69
50632;BME280;49583;45.590;-122.498;2023-07-31T01:38:04;101374.19;;;29.30;28.56
50632;BME280;49583;45.590;-122.498;2023-07-31T01:40:17;101379.09;;;29.27;28.53
50632;BME280;49583;45.590;-122.498;2023-07-31T01:42:31;101380.43;;;29.22;28.66
50632;BME280;49583;45.590;-122.498;2023-07-31T01:44:44;101377.54;;;29.19;28.62
50632;BME280;49583;45.590;-122.498;2023-07-31T01:46:56;101377.26;;;29.16;28.53
50632;BME280;49583;45.590;-122.498;2023-07-31T01:49:10;101376.31;;;29.10;28.59
50632;BME280;49583;45.590;-122.498;2023-07-31T01:51:24;101382.91;;;29.08;28.68
50632;BME280;49583;45.590;-122.498;2023-07-31T01:53:36;101387.52;;;29.04;28.77
50632;BME280;49583;45.590;-122.498;2023-07-31T01:55:49;101385.38;;;29.00;28.74
50632;BME280;49583;45.590;-122.498;2023-07-31T01:58:02;101385.57;;;28.96;28.70
50632;BME280;49583;45.590;-122.498;2023-07-31T02:00:15;101389.94;;;28.91;28.97
50632;BME280;49583;45.590;-122.498;2023-07-31T02:02:29;101387.38;;;28.88;29.05
50632;BME280;49583;45.590;-122.498;2023-07-31T02:04:42;101380.79;;;28.85;29.06
50632;BME280;49583;45.590;-122.498;2023-07-31T02:06:54;101385.39;;;28.83;29.31
50632;BME280;49583;45.590;-122.498;2023-07-31T02:09:07;101389.40;;;28.80;29.17
50632;BME280;49583;45.590;-122.498;2023-07-31T02:11:20;101387.89;;;28.73;29.39
50632;BME280;49583;45.590;-122.498;2023-07-31T02:13:33;101384.65;;;28.67;29.39
50632;BME280;49583;45.590;-122.498;2023-07-31T02:15:47;101387.63;;;28.62;29.44
50632;BME280;49583;45.590;-122.498;2023-07-31T02:18:01;101382.01;;;28.58;29.58
50632;BME280;49583;45.590;-122.498;2023-07-31T02:20:15;101383.32;;;28.54;29.75
50632;BME280;49583;45.590;-122.498;2023-07-31T02:22:28;101384.94;;;28.51;29.83
50632;BME280;49583;45.590;-122.498;2023-07-31T02:24:40;101386.54;;;28.48;29.92
50632;BME280;49583;45.590;-122.498;2023-07-31T02:26:53;101386.31;;;28.46;29.99
50632;BME280;49583;45.590;-122.498;2023-07-31T02:29:07;101390.08;;;28.42;29.99
50632;BME280;49583;45.590;-122.498;2023-07-31T02:31:20;101389.35;;;28.37;29.98
50632;BME280;49583;45.590;-122.498;2023-07-31T02:33:33;101398.64;;;28.32;30.03
50632;BME280;49583;45.590;-122.498;2023-07-31T02:35:46;101400.59;;;28.29;30.17
50632;BME280;49583;45.590;-122.498;2023-07-31T02:37:59;101402.02;;;28.24;30.26
50632;BME280;49583;45.590;-122.498;2023-07-31T02:40:13;101402.63;;;28.20;30.46
50632;BME280;49583;45.590;-122.498;2023-07-31T02:42:27;101401.14;;;28.16;30.69
50632;BME280;49583;45.590;-122.498;2023-07-31T02:44:40;101405.48;;;28.11;30.86
50632;BME280;49583;45.590;-122.498;2023-07-31T02:46:54;101403.05;;;28.06;31.15
50632;BME280;49583;45.590;-122.498;2023-07-31T02:49:07;101406.38;;;28.01;31.40
50632;BME280;49583;45.590;-122.498;2023-07-31T02:51:20;101408.25;;;27.96;31.48
50632;BME280;49583;45.590;-122.498;2023-07-31T02:53:34;101411.52;;;27.90;31.74
50632;BME280;49583;45.590;-122.498;2023-07-31T02:55:47;101409.40;;;27.83;31.75
50632;BME280;49583;45.590;-122.498;2023-07-31T02:58:00;101411.19;;;27.76;32.21
50632;BME280;49583;45.590;-122.498;2023-07-31T03:00:13;101414.63;;;27.71;32.30
50632;BME280;49583;45.590;-122.498;2023-07-31T03:02:26;101413.84;;;27.64;32.38
50632;BME280;49583;45.590;-122.498;2023-07-31T03:04:39;101417.14;;;27.57;32.28
50632;BME280;49583;45.590;-122.498;2023-07-31T03:06:52;101415.23;;;27.49;32.53
50632;BME280;49583;45.590;-122.498;2023-07-31T03:09:05;101415.80;;;27.41;32.59
50632;BME280;49583;45.590;-122.498;2023-07-31T03:11:19;101419.06;;;27.33;32.68
50632;BME280;49583;45.590;-122.498;2023-07-31T03:13:31;101420.76;;;27.26;32.83
50632;BME280;49583;45.590;-122.498;2023-07-31T03:15:46;101418.49;;;27.17;33.12
50632;BME280;49583;45.590;-122.498;2023-07-31T03:17:59;101423.92;;;27.09;33.12
50632;BME280;49583;45.590;-122.498;2023-07-31T03:20:13;101428.37;;;27.04;33.22
50632;BME280;49583;45.590;-122.498;2023-07-31T03:22:28;101430.73;;;26.96;33.55
50632;BME280;49583;45.590;-122.498;2023-07-31T03:24:41;101430.33;;;26.88;33.56
50632;BME280;49583;45.590;-122.498;2023-07-31T03:26:54;101430.84;;;26.80;33.86
50632;BME280;49583;45.590;-122.498;2023-07-31T03:29:08;101435.08;;;26.73;34.08
50632;BME280;49583;45.590;-122.498;2023-07-31T03:31:21;101435.23;;;26.67;34.08
50632;BME280;49583;45.590;-122.498;2023-07-31T03:33:34;101436.92;;;26.59;34.37
50632;BME280;49583;45.590;-122.498;2023-07-31T03:35:47;101437.33;;;26.52;34.49
50632;BME280;49583;45.590;-122.498;2023-07-31T03:37:59;101432.14;;;26.44;34.76
50632;BME280;49583;45.590;-122.498;2023-07-31T03:40:13;101438.61;;;26.37;35.01
50632;BME280;49583;45.590;-122.498;2023-07-31T03:42:26;101436.96;;;26.31;35.07
50632;BME280;49583;45.590;-122.498;2023-07-31T03:44:38;101439.16;;;26.24;35.37
50632;BME280;49583;45.590;-122.498;2023-07-31T03:46:51;101436.36;;;26.18;35.35
50632;BME280;49583;45.590;-122.498;2023-07-31T03:49:04;101442.46;;;26.13;35.52
50632;BME280;49583;45.590;-122.498;2023-07-31T03:51:17;101443.56;;;26.06;35.82
50632;BME280;49583;45.590;-122.498;2023-07-31T03:53:30;101442.45;;;25.98;36.03
50632;BME280;49583;45.590;-122.498;2023-07-31T03:55:43;101451.95;;;25.91;36.03
50632;BME280;49583;45.590;-122.498;2023-07-31T03:57:56;101452.70;;;25.85;36.09
50632;BME280;49583;45.590;-122.498;2023-07-31T04:00:12;101454.50;;;25.78;36.43
50632;BME280;49583;45.590;-122.498;2023-07-31T04:02:25;101453.41;;;25.69;36.53
50632;BME280;49583;45.590;-122.498;2023-07-31T04:04:38;101458.81;;;25.58;37.06
50632;BME280;49583;45.590;-122.498;2023-07-31T04:06:51;101460.88;;;25.50;37.17
50632;BME280;49583;45.590;-122.498;2023-07-31T04:09:04;101459.02;;;25.42;37.20
50632;BME280;49583;45.590;-122.498;2023-07-31T04:11:16;101460.39;;;25.37;37.45
50632;BME280;49583;45.590;-122.498;2023-07-31T04:13:29;101462.73;;;25.27;37.54
50632;BME280;49583;45.590;-122.498;2023-07-31T04:15:44;101459.88;;;25.16;37.79
50632;BME280;49583;45.590;-122.498;2023-07-31T04:18:00;101462.23;;;25.06;37.97
50632;BME280;49583;45.590;-122.498;2023-07-31T04:20:14;101465.11;;;24.97;38.15
50632;BME280;49583;45.590;-122.498;2023-07-31T04:22:26;101465.88;;;24.88;38.27
50632;BME280;49583;45.590;-122.498;2023-07-31T04:24:39;101466.22;;;24.84;38.39
50632;BME280;49583;45.590;-122.498;2023-07-31T04:26:52;101466.64;;;24.76;38.57
50632;BME280;49583;45.590;-122.498;2023-07-31T04:29:04;101466.80;;;24.70;38.68
50632;BME280;49583;45.590;-122.498;2023-07-31T04:31:17;101466.63;;;24.64;38.74
50632;BME280;49583;45.590;-122.498;2023-07-31T04:33:30;101463.09;;;24.58;38.93
50632;BME280;49583;45.590;-122.498;2023-07-31T04:35:46;101461.98;;;24.51;38.99
50632;BME280;49583;45.590;-122.498;2023-07-31T04:38:02;101463.20;;;24.43;39.06
50632;BME280;49583;45.590;-122.498;2023-07-31T04:40:16;101462.17;;;24.36;39.26
50632;BME280;49583;45.590;-122.498;2023-07-31T04:42:28;101462.82;;;24.29;39.39
50632;BME280;49583;45.590;-122.498;2023-07-31T04:44:41;101461.79;;;24.22;39.54
50632;BME280;49583;45.590;-122.498;2023-07-31T04:46:54;101466.36;;;24.12;39.65
50632;BME280;49583;45.590;-122.498;2023-07-31T04:49:07;101467.90;;;24.04;39.69
50632;BME280;49583;45.590;-122.498;2023-07-31T04:51:20;101470.16;;;23.96;39.92
50632;BME280;49583;45.590;-122.498;2023-07-31T04:53:33;101472.11;;;23.90;40.11
50632;BME280;49583;45.590;-122.498;2023-07-31T04:55:46;101474.48;;;23.84;40.15
50632;BME280;49583;45.590;-122.498;2023-07-31T04:58:00;101467.41;;;23.78;40.19
50632;BME280;49583;45.590;-122.498;2023-07-31T05:00:13;101469.49;;;23.70;40.41
50632;BME280;49583;45.590;-122.498;2023-07-31T05:02:26;101466.23;;;23.62;40.51
50632;BME280;49583;45.590;-122.498;2023-07-31T05:04:39;101460.36;;;23.55;40.56
50632;BME280;49583;45.590;-122.498;2023-07-31T05:06:52;101461.38;;;23.48;40.73
50632;BME280;49583;45.590;-122.498;2023-07-31T05:09:05;101459.52;;;23.39;40.91
50632;BME280;49583;45.590;-122.498;2023-07-31T05:11:19;101462.83;;;23.34;41.01
50632;BME280;49583;45.590;-122.498;2023-07-31T05:13:32;101467.00;;;23.28;41.15
50632;BME280;49583;45.590;-122.498;2023-07-31T05:15:45;101463.14;;;23.22;41.16
50632;BME280;49583;45.590;-122.498;2023-07-31T05:17:59;101466.34;;;23.16;41.05
50632;BME280;49583;45.590;-122.498;2023-07-31T05:20:13;101467.79;;;23.11;41.38
50632;BME280;49583;45.590;-122.498;2023-07-31T05:22:27;101469.93;;;23.03;41.33
50632;BME280;49583;45.590;-122.498;2023-07-31T05:24:39;101471.33;;;22.95;41.36
50632;BME280;49583;45.590;-122.498;2023-07-31T05:26:52;101474.61;;;22.91;41.64
50632;BME280;49583;45.590;-122.498;2023-07-31T05:29:05;101473.01;;;22.86;41.66
50632;BME280;49583;45.590;-122.498;2023-07-31T05:31:20;101479.20;;;22.83;41.73
50632;BME280;49583;45.590;-122.498;2023-07-31T05:33:33;101479.21;;;22.78;41.69
50632;BME280;49583;45.590;-122.498;2023-07-31T05:35:45;101483.33;;;22.75;41.86
50632;BME280;49583;45.590;-122.498;2023-07-31T05:37:58;101480.08;;;22.67;41.94
50632;BME280;49583;45.590;-122.498;2023-07-31T05:40:12;101479.30;;;22.55;41.84
50632;BME280;49583;45.590;-122.498;2023-07-31T05:42:25;101484.23;;;22.51;42.02
50632;BME280;49583;45.590;-122.498;2023-07-31T05:44:38;101482.55;;;22.46;42.20
50632;BME280;49583;45.590;-122.498;2023-07-31T05:46:50;101483.92;;;22.39;42.30
50632;BME280;49583;45.590;-122.498;2023-07-31T05:49:03;101482.66;;;22.33;42.15
50632;BME280;49583;45.590;-122.498;2023-07-31T05:51:16;101480.12;;;22.26;42.36
50632;BME280;49583;45.590;-122.498;2023-07-31T05:53:28;101476.14;;;22.21;42.54
50632;BME280;49583;45.590;-122.498;2023-07-31T05:55:41;101475.65;;;22.15;42.60
50632;BME280;49583;45.590;-122.498;2023-07-31T05:57:54;101478.34;;;22.11;42.58
50632;BME280;49583;45.590;-122.498;2023-07-31T06:00:12;101476.87;;;22.07;42.71
50632;BME280;49583;45.590;-122.498;2023-07-31T06:02:25;101474.23;;;22.03;42.81
50632;BME280;49583;45.590;-122.498;2023-07-31T06:04:37;101471.98;;;21.97;42.85
50632;BME280;49583;45.590;-122.498;2023-07-31T06:06:50;101470.56;;;21.94;42.95
50632;BME280;49583;45.590;-122.498;2023-07-31T06:09:03;101476.91;;;21.91;43.08
50632;BME280;49583;45.590;-122.498;2023-07-31T06:11:16;101477.34;;;21.87;43.04
50632;BME280;49583;45.590;-122.498;2023-07-31T06:13:29;101476.05;;;21.83;43.23
50632;BME280;49583;45.590;-122.498;2023-07-31T06:15:41;101476.73;;;21.78;43.15
50632;BME280;49583;45.590;-122.498;2023-07-31T06:17:54;101473.77;;;21.73;43.22
50632;BME280;49583;45.590;-122.498;2023-07-31T06:20:10;101477.78;;;21.70;43.33
50632;BME280;49583;45.590;-122.498;2023-07-31T06:22:23;101470.95;;;21.63;43.42
50632;BME280;49583;45.590;-122.498;2023-07-31T06:24:36;101472.70;;;21.62;43.48
50632;BME280;49583;45.590;-122.498;2023-07-31T06:26:49;101475.17;;;21.57;43.55
50632;BME280;49583;45.590;-122.498;2023-07-31T06:29:01;101475.25;;;21.54;43.65
50632;BME280;49583;45.590;-122.498;2023-07-31T06:31:14;101474.20;;;21.50;43.67
50632;BME280;49583;45.590;-122.498;2023-07-31T06:33:30;101476.80;;;21.45;43.74
50632;BME280;49583;45.590;-122.498;2023-07-31T06:35:43;101476.36;;;21.40;43.84
50632;BME280;49583;45.590;-122.498;2023-07-31T06:37:55;101473.70;;;21.36;43.92
50632;BME280;49583;45.590;-122.498;2023-07-31T06:40:10;101475.23;;;21.36;43.96
50632;BME280;49583;45.590;-122.498;2023-07-31T06:42:23;101472.39;;;21.32;43.91
50632;BME280;49583;45.590;-122.498;2023-07-31T06:44:36;101469.89;;;21.29;44.06
50632;BME280;49583;45.590;-122.498;2023-07-31T06:46:48;101470.02;;;21.23;44.01
50632;BME280;49583;45.590;-122.498;2023-07-31T06:49:01;101471.01;;;21.21;44.18
50632;BME280;49583;45.590;-122.498;2023-07-31T06:51:13;101470.38;;;21.17;44.26
50632;BME280;49583;45.590;-122.498;2023-07-31T06:53:26;101474.96;;;21.10;44.39
50632;BME280;49583;45.590;-122.498;2023-07-31T06:55:39;101472.77;;;21.06;44.49
50632;BME280;49583;45.590;-122.498;2023-07-31T06:57:53;101470.67;;;21.00;44.56
50632;BME280;49583;45.590;-122.498;2023-07-31T07:00:09;101468.02;;;20.95;44.71
50632;BME280;49583;45.590;-122.498;2023-07-31T07:02:22;101472.16;;;20.92;44.81
50632;BME280;49583;45.590;-122.498;2023-07-31T07:04:34;101475.09;;;20.89;44.91
50632;BME280;49583;45.590;-122.498;2023-07-31T07:06:47;101475.81;;;20.86;45.02
50632;BME280;49583;45.590;-122.498;2023-07-31T07:08:59;101476.39;;;20.83;45.13
50632;BME280;49583;45.590;-122.498;2023-07-31T07:11:13;101478.02;;;20.79;45.18
50632;BME280;49583;45.590;-122.498;2023-07-31T07:13:25;101478.53;;;20.74;45.17
50632;BME280;49583;45.590;-122.498;2023-07-31T07:15:39;101480.14;;;20.71;45.45
50632;BME280;49583;45.590;-122.498;2023-07-31T07:17:51;101482.10;;;20.66;45.55
50632;BME280;49583;45.590;-122.498;2023-07-31T07:20:04;101482.52;;;20.63;45.69
50632;BME280;49583;45.590;-122.498;2023-07-31T07:22:18;101486.13;;;20.60;45.72
50632;BME280;49583;45.590;-122.498;2023-07-31T07:24:31;101486.23;;;20.54;45.80
50632;BME280;49583;45.590;-122.498;2023-07-31T07:26:44;101489.45;;;20.50;45.92
50632;BME280;49583;45.590;-122.498;2023-07-31T07:28:56;101490.89;;;20.46;46.03
50632;BME280;49583;45.590;-122.498;2023-07-31T07:31:12;101490.85;;;20.42;46.09
50632;BME280;49583;45.590;-122.498;2023-07-31T07:33:24;101489.20;;;20.36;46.25
50632;BME280;49583;45.590;-122.498;2023-07-31T07:35:37;101491.35;;;20.33;46.40
50632;BME280;49583;45.590;-122.498;2023-07-31T07:37:50;101488.29;;;20.28;46.42
50632;BME280;49583;45.590;-122.498;2023-07-31T07:40:04;101488.92;;;20.24;46.55
50632;BME280;49583;45.590;-122.498;2023-07-31T07:42:16;101487.60;;;20.21;46.62
50632;BME280;49583;45.590;-122.498;2023-07-31T07:44:29;101488.02;;;20.18;46.77
50632;BME280;49583;45.590;-122.498;2023-07-31T07:46:43;101491.52;;;20.15;46.80
50632;BME280;49583;45.590;-122.498;2023-07-31T07:48:56;101491.70;;;20.12;46.87
50632;BME280;49583;45.590;-122.498;2023-07-31T07:51:09;101489.16;;;20.09;47.08
50632;BME280;49583;45.590;-122.498;2023-07-31T07:53:22;101493.30;;;20.07;47.16
50632;BME280;49583;45.590;-122.498;2023-07-31T07:55:35;101493.48;;;20.04;47.18
50632;BME280;49583;45.590;-122.498;2023-07-31T07:57:47;101490.56;;;20.01;47.28
50632;BME280;49583;45.590;-122.498;2023-07-31T08:00:00;101495.82;;;19.98;47.37
50632;BME280;49583;45.590;-122.498;2023-07-31T08:02:21;101496.63;;;19.92;47.46
50632;BME280;49583;45.590;-122.498;2023-07-31T08:04:34;101498.77;;;19.90;47.57
50632;BME280;49583;45.590;-122.498;2023-07-31T08:06:47;101508.00;;;19.87;47.56
50632;BME280;49583;45.590;-122.498;2023-07-31T08:08:59;101510.24;;;19.83;47.74
50632;BME280;49583;45.590;-122.498;2023-07-31T08:11:16;101510.73;;;19.78;47.76
50632;BME280;49583;45.590;-122.498;2023-07-31T08:13:28;101510.52;;;19.73;47.81
50632;BME280;49583;45.590;-122.498;2023-07-31T08:15:43;101513.94;;;19.69;48.04
50632;BME280;49583;45.590;-122.498;2023-07-31T08:17:56;101516.17;;;19.66;48.12
50632;BME280;49583;45.590;-122.498;2023-07-31T08:20:12;101516.02;;;19.63;48.32
50632;BME280;49583;45.590;-122.498;2023-07-31T08:22:24;101520.39;;;19.59;48.32
50632;BME280;49583;45.590;-122.498;2023-07-31T08:24:37;101518.58;;;19.55;48.42
50632;BME280;49583;45.590;-122.498;2023-07-31T08:26:50;101517.80;;;19.50;48.57
50632;BME280;49583;45.590;-122.498;2023-07-31T08:29:02;101514.13;;;19.46;48.64
50632;BME280;49583;45.590;-122.498;2023-07-31T08:31:15;101516.65;;;19.44;48.79
50632;BME280;49583;45.590;-122.498;2023-07-31T08:33:28;101517.23;;;19.41;48.79
50632;BME280;49583;45.590;-122.498;2023-07-31T08:35:41;101520.16;;;19.40;48.91
50632;BME280;49583;45.590;-122.498;2023-07-31T08:37:54;101525.40;;;19.37;48.95
50632;BME280;49583;45.590;-122.498;2023-07-31T08:40:08;101527.05;;;19.36;48.95
50632;BME280;49583;45.590;-122.498;2023-07-31T08:42:20;101526.52;;;19.34;49.18
50632;BME280;49583;45.590;-122.498;2023-07-31T08:44:34;101522.87;;;19.31;49.20
50632;BME280;49583;45.590;-122.498;2023-07-31T08:46:48;101525.09;;;19.29;49.29
50632;BME280;49583;45.590;-122.498;2023-07-31T08:49:01;101525.82;;;19.27;49.38
50632;BME280;49583;45.590;-122.498;2023-07-31T08:51:16;101525.89;;;19.24;49.39
50632;BME280;49583;45.590;-122.498;2023-07-31T08:53:29;101523.11;;;19.21;49.59
50632;BME280;49583;45.590;-122.498;2023-07-31T08:55:42;101524.95;;;19.18;49.57
50632;BME280;49583;45.590;-122.498;2023-07-31T08:57:56;101523.59;;;19.14;49.57
50632;BME280;49583;45.590;-122.498;2023-07-31T09:00:11;101524.00;;;19.11;49.77
50632;BME280;49583;45.590;-122.498;2023-07-31T09:02:24;101525.17;;;19.06;49.80
50632;BME280;49583;45.590;-122.498;2023-07-31T09:04:41;101528.92;;;19.03;49.90
50632;BME280;49583;45.590;-122.498;2023-07-31T09:06:57;101532.63;;;18.99;49.94
50632;BME280;49583;45.590;-122.498;2023-07-31T09:09:13;101533.20;;;18.95;50.10
50632;BME280;49583;45.590;-122.498;2023-07-31T09:11:26;101531.44;;;18.92;50.21
50632;BME280;49583;45.590;-122.498;2023-07-31T09:13:42;101529.95;;;18.89;50.26
50632;BME280;49583;45.590;-122.498;2023-07-31T09:15:55;101530.02;;;18.84;50.48
50632;BME280;49583;45.590;-122.498;2023-07-31T09:18:08;101531.98;;;18.82;50.51
50632;BME280;49583;45.590;-122.498;2023-07-31T09:20:22;101531.27;;;18.79;50.56
50632;BME280;49583;45.590;-122.498;2023-07-31T09:22:38;101529.76;;;18.74;50.68
50632;BME280;49583;45.590;-122.498;2023-07-31T09:24:51;101529.67;;;18.70;50.72
50632;BME280;49583;45.590;-122.498;2023-07-31T09:27:05;101525.45;;;18.67;50.79
50632;BME280;49583;45.590;-122.498;2023-07-31T09:29:22;101525.95;;;18.63;50.96
50632;BME280;49583;45.590;-122.498;2023-07-31T09:31:40;101525.13;;;18.59;50.97
50632;BME280;49583;45.590;-122.498;2023-07-31T09:33:58;101529.00;;;18.56;51.19
50632;BME280;49583;45.590;-122.498;2023-07-31T09:36:11;101528.56;;;18.52;51.28
50632;BME280;49583;45.590;-122.498;2023-07-31T09:38:23;101521.99;;;18.48;51.33
50632;BME280;49583;45.590;-122.498;2023-07-31T09:40:38;101526.73;;;18.45;51.49
50632;BME280;49583;45.590;-122.498;2023-07-31T09:42:51;101523.64;;;18.40;51.55
50632;BME280;49583;45.590;-122.498;2023-07-31T09:45:13;101527.34;;;18.35;51.72
50632;BME280;49583;45.590;-122.498;2023-07-31T09:47:33;101524.88;;;18.32;51.83
50632;BME280;49583;45.590;-122.498;2023-07-31T09:49:50;101528.27;;;18.29;52.00
50632;BME280;49583;45.590;-122.498;2023-07-31T09:52:03;101529.14;;;18.25;52.06
50632;BME280;49583;45.590;-122.498;2023-07-31T09:54:24;101528.88;;;18.21;52.15
50632;BME280;49583;45.590;-122.498;2023-07-31T09:56:38;101530.70;;;18.19;52.09
50632;BME280;49583;45.590;-122.498;2023-07-31T09:58:53;101529.95;;;18.14;52.24
50632;BME280;49583;45.590;-122.498;2023-07-31T10:01:06;101529.56;;;18.09;52.35
50632;BME280;49583;45.590;-122.498;2023-07-31T10:03:19;101528.90;;;18.04;52.31
50632;BME280;49583;45.590;-122.498;2023-07-31T10:05:34;101527.30;;;18.00;52.51
50632;BME280;49583;45.590;-122.498;2023-07-31T10:07:53;101530.36;;;17.97;52.56
50632;BME280;49583;45.590;-122.498;2023-07-31T10:10:07;101530.67;;;17.93;52.60
50632;BME280;49583;45.590;-122.498;2023-07-31T10:12:21;101530.40;;;17.89;52.65
50632;BME280;49583;45.590;-122.498;2023-07-31T10:14:38;101535.90;;;17.83;52.66
50632;BME280;49583;45.590;-122.498;2023-07-31T10:16:52;101536.60;;;17.77;52.78
50632;BME280;49583;45.590;-122.498;2023-07-31T10:19:05;101536.17;;;17.73;52.97
50632;BME280;49583;45.590;-122.498;2023-07-31T10:21:19;101535.30;;;17.70;53.09
50632;BME280;49583;45.590;-122.498;2023-07-31T10:23:31;101538.28;;;17.66;53.22
50632;BME280;49583;45.590;-122.498;2023-07-31T10:25:45;101537.48;;;17.64;53.32
50632;BME280;49583;45.590;-122.498;2023-07-31T10:27:59;101536.84;;;17.63;53.51
50632;BME280;49583;45.590;-122.498;2023-07-31T10:30:15;101539.45;;;17.63;53.60
50632;BME280;49583;45.590;-122.498;2023-07-31T10:32:30;101536.52;;;17.62;53.65
50632;BME280;49583;45.590;-122.498;2023-07-31T10:34:43;101544.72;;;17.61;53.68
50632;BME280;49583;45.590;-122.498;2023-07-31T10:37:21;101541.27;;;17.57;53.71
50632;BME280;49583;45.590;-122.498;2023-07-31T10:39:40;101543.79;;;17.53;53.66
50632;BME280;49583;45.590;-122.498;2023-07-31T10:41:53;101544.08;;;17.49;53.89
50632;BME280;49583;45.590;-122.498;2023-07-31T10:44:06;101542.38;;;17.45;54.02
50632;BME280;49583;45.590;-122.498;2023-07-31T10:46:19;101546.46;;;17.43;54.05
50632;BME280;49583;45.590;-122.498;2023-07-31T10:48:35;101543.77;;;17.39;54.09
50632;BME280;49583;45.590;-122.498;2023-07-31T10:50:51;101543.02;;;17.34;54.23
50632;BME280;49583;45.590;-122.498;2023-07-31T10:53:05;101547.19;;;17.30;54.21
50632;BME280;49583;45.590;-122.498;2023-07-31T10:55:28;101550.23;;;17.27;54.35
50632;BME280;49583;45.590;-122.498;2023-07-31T10:57:41;101549.81;;;17.23;54.39
50632;BME280;49583;45.590;-122.498;2023-07-31T11:00:20;101552.71;;;17.20;54.54
50632;BME280;49583;45.590;-122.498;2023-07-31T11:02:35;101556.23;;;17.15;54.68
50632;BME280;49583;45.590;-122.498;2023-07-31T11:05:08;101556.60;;;17.13;54.77
50632;BME280;49583;45.590;-122.498;2023-07-31T11:07:18;101554.69;;;17.09;54.87
50632;BME280;49583;45.590;-122.498;2023-07-31T11:09:32;101550.68;;;17.05;54.89
50632;BME280;49583;45.590;-122.498;2023-07-31T11:11:46;101550.81;;;17.01;54.99
50632;BME280;49583;45.590;-122.498;2023-07-31T11:14:02;101553.38;;;16.97;55.10